Time;durP1;ratioP1;P1;durP2;ratioP2;P2;SDS_P1;SDS_P2;PMS_P1;PMS_P2;Temp;Humidity;BMP_temperature;BMP_pressure;BME280_temperature;BME280_humidity;BME280_pressure;Samples;Min_cycle;Max_cycle;Signal;HPM_P1;HPM_P2
2022/12/25 00:02:23;;;;;;;;;;;;;;;5.98;100.00;96473.63;4932102;28;19919;-84
2022/12/25 00:04:48;;;;;;;;;;;;;;;5.96;100.00;96480.72;4943673;29;19921;-83
2022/12/25 00:07:14;;;;;;;;;;;;;;;5.90;100.00;96479.41;4929351;28;19918;-83
2022/12/25 00:09:54;;;;;;;;;;;;;;;5.95;100.00;96474.69;4939998;29;19958;-84
2022/12/25 00:12:24;;;;;;;;;;;;;;;5.91;100.00;96476.69;4928575;29;19915;-84
2022/12/25 00:14:49;;;;;;;;;;;;;;;5.88;100.00;96458.66;4942584;28;19928;-83
2022/12/25 00:17:15;;;;;;;;;;;;;;;5.84;100.00;96452.03;4949627;28;19929;-84
2022/12/25 00:19:52;;;;;;;;;;;;;;;5.90;100.00;96446.31;4943026;29;20828;-83
2022/12/25 00:22:18;;;;;;;;;;;;;;;5.88;100.00;96445.63;4929257;28;20081;-84
2022/12/25 00:24:46;;;;;;;;;;;;;;;5.88;100.00;96448.22;4911533;29;20417;-84
2022/12/25 00:27:13;;;;;;;;;;;;;;;5.93;100.00;96444.44;4930028;28;19962;-83
2022/12/25 00:29:39;;;;;;;;;;;;;;;5.88;100.00;96448.22;4944718;28;19926;-83
2022/12/25 00:32:21;;;;;;;;;;;;;;;5.85;100.00;96448.47;4921780;28;19977;-83
2022/12/25 00:34:46;;;;;;;;;;;;;;;5.81;100.00;96457.50;4939204;29;20013;-83
2022/12/25 00:37:12;;;;;;;;;;;;;;;5.80;100.00;96453.25;4922916;28;20365;-83
2022/12/25 00:39:38;;;;;;;;;;;;;;;5.76;100.00;96459.66;4930993;28;19921;-83
2022/12/25 00:42:19;;;;;;;;;;;;;;;5.77;100.00;96466.53;4943145;28;19957;-83
2022/12/25 00:44:45;;;;;;;;;;;;;;;5.78;100.00;96460.38;4928237;29;19989;-83
2022/12/25 00:47:11;;;;;;;;;;;;;;;5.78;100.00;96468.19;4913259;28;19918;-83
2022/12/25 00:49:36;;;;;;;;;;;;;;;5.82;100.00;96466.16;4930090;29;20305;-83
2022/12/25 00:52:02;;;;;;;;;;;;;;;5.84;100.00;96459.88;4933896;28;19969;-83
2022/12/25 00:54:28;;;;;;;;;;;;;;;5.85;100.00;96463.31;4935884;29;19970;-83
2022/12/25 00:57:06;;;;;;;;;;;;;;;5.86;100.00;96457.94;4921248;29;20408;-83
2022/12/25 00:59:32;;;;;;;;;;;;;;;5.86;100.00;96450.13;4918609;29;19914;-84
2022/12/25 01:02:22;;;;;;;;;;;;;;;5.86;100.00;96454.50;4944168;28;19914;-84
2022/12/25 01:04:46;;;;;;;;;;;;;;;5.85;100.00;96461.53;4943277;28;19949;-83
2022/12/25 01:07:12;;;;;;;;;;;;;;;5.85;100.00;96456.31;4929840;28;20455;-83
2022/12/25 01:12:22;;;;;;;;;;;;;;;5.91;100.00;96447.16;4967383;28;19924;-83
2022/12/25 01:14:47;;;;;;;;;;;;;;;5.95;100.00;96445.16;4923641;29;19914;-83
2022/12/25 01:17:13;;;;;;;;;;;;;;;5.98;100.00;96448.34;4935839;28;20336;-83
2022/12/25 01:19:38;;;;;;;;;;;;;;;6.02;100.00;96449.72;4921100;29;19925;-83
2022/12/25 01:22:04;;;;;;;;;;;;;;;6.02;100.00;96454.13;4953471;28;19918;-83
2022/12/25 01:24:29;;;;;;;;;;;;;;;5.96;100.00;96450.22;4945325;29;20249;-83
2022/12/25 01:26:55;;;;;;;;;;;;;;;5.95;100.00;96452.97;4927528;29;20361;-82
2022/12/25 01:29:20;;;;;;;;;;;;;;;5.97;100.00;96445.84;4931012;28;19918;-83
2022/12/25 01:31:46;;;;;;;;;;;;;;;6.01;100.00;96447.25;4912906;29;19953;-84
2022/12/25 01:34:15;;;;;;;;;;;;;;;6.00;100.00;96445.59;4922645;28;20009;-84
2022/12/25 01:36:41;;;;;;;;;;;;;;;6.01;100.00;96453.31;4912327;29;19921;-83
2022/12/25 01:39:06;;;;;;;;;;;;;;;6.04;100.00;96449.63;4935603;28;19917;-83
2022/12/25 01:41:32;;;;;;;;;;;;;;;6.07;100.00;96457.19;4936385;29;20269;-83
2022/12/25 01:44:17;;;;;;;;;;;;;;;6.14;100.00;96453.13;4921395;29;19915;-83
2022/12/25 01:46:43;;;;;;;;;;;;;;;6.16;100.00;96461.66;4943115;29;19954;-83
2022/12/25 01:49:15;;;;;;;;;;;;;;;6.11;100.00;96456.00;4942757;28;20016;-83
2022/12/25 01:51:43;;;;;;;;;;;;;;;6.12;100.00;96460.25;4922886;29;19934;-84
2022/12/25 01:54:15;;;;;;;;;;;;;;;6.11;100.00;96463.84;4912763;28;19977;-83
2022/12/25 01:56:42;;;;;;;;;;;;;;;6.07;100.00;96463.25;4940993;29;19919;-82
2022/12/25 01:59:09;;;;;;;;;;;;;;;6.07;100.00;96452.81;4917419;28;19929;-83
2022/12/25 02:01:34;;;;;;;;;;;;;;;6.06;100.00;96458.13;4931522;29;19918;-83
2022/12/25 02:04:05;;;;;;;;;;;;;;;6.04;100.00;96457.47;4917159;28;20284;-83
2022/12/25 02:06:32;;;;;;;;;;;;;;;6.08;100.00;96456.25;4939698;29;19969;-83
2022/12/25 02:08:59;;;;;;;;;;;;;;;6.00;100.00;96456.88;4943753;28;19977;-83
2022/12/25 02:14:08;;;;;;;;;;;;;;;5.94;100.00;96441.72;4931612;28;19918;-83
2022/12/25 02:16:37;;;;;;;;;;;;;;;5.94;100.00;96446.13;4912108;29;19914;-83
2022/12/25 02:19:17;;;;;;;;;;;;;;;5.95;100.00;96452.97;4929340;28;19914;-83
2022/12/25 02:22:02;;;;;;;;;;;;;;;5.88;100.00;96450.84;4951509;28;19914;-83
2022/12/25 02:24:34;;;;;;;;;;;;;;;5.89;100.00;96449.88;4935859;29;19961;-83
2022/12/25 02:27:27;;;;;;;;;;;;;;;5.97;100.00;96449.31;4925443;28;19922;-83
2022/12/25 02:29:59;;;;;;;;;;;;;;;6.09;100.00;96456.09;4930179;29;20018;-83
2022/12/25 02:32:27;;;;;;;;;;;;;;;6.13;100.00;96461.91;4919625;28;19925;-83
2022/12/25 02:34:55;;;;;;;;;;;;;;;6.30;100.00;96453.50;4915473;29;19915;-83
2022/12/25 02:37:31;;;;;;;;;;;;;;;6.33;100.00;96455.84;4922341;28;20382;-83
2022/12/25 02:40:15;;;;;;;;;;;;;;;6.33;100.00;96452.44;4921381;29;19937;-83
2022/12/25 03:08:42;;;;;;;;;;;;;;;6.42;100.00;96437.78;4919560;29;19972;-84
2022/12/25 03:16:49;;;;;;;;;;;;;;;6.45;100.00;96427.91;4940262;29;19926;-84
2022/12/25 03:16:52;;;;;;;;;;;;;;;6.47;100.00;96435.59;4920517;29;19915;-83
2022/12/25 03:27:51;;;;;;;;;;;;;;;6.69;100.00;96438.06;4921824;29;20272;-83
2022/12/25 03:33:24;;;;;;;;;;;;;;;6.59;100.00;96424.13;4949528;29;20005;-83
2022/12/25 03:36:04;;;;;;;;;;;;;;;6.56;100.00;96424.38;4920429;29;19914;-83
2022/12/25 03:47:37;;;;;;;;;;;;;;;6.61;100.00;96411.75;4952954;29;19915;-83
2022/12/25 04:37:23;;;;;;;;;;;;;;;6.77;100.00;96396.44;4917244;29;20381;-82
2022/12/25 04:39:50;;;;;;;;;;;;;;;6.70;100.00;96400.50;4910056;29;19919;-83
2022/12/25 04:42:16;;;;;;;;;;;;;;;6.65;100.00;96400.09;4893605;29;19917;-83
2022/12/25 04:44:41;;;;;;;;;;;;;;;6.58;100.00;96378.88;4921697;29;19922;-83
2022/12/25 04:47:12;;;;;;;;;;;;;;;6.48;100.00;96372.78;4936954;29;19941;-83
2022/12/25 04:49:37;;;;;;;;;;;;;;;6.47;100.00;96371.13;4911799;29;19919;-83
2022/12/25 04:52:07;;;;;;;;;;;;;;;6.41;100.00;96371.66;4915746;29;20416;-83
2022/12/25 04:54:33;;;;;;;;;;;;;;;6.45;100.00;96367.00;4902202;29;19925;-83
2022/12/25 04:56:58;;;;;;;;;;;;;;;6.45;100.00;96373.03;4916277;29;20075;-84
2022/12/25 04:59:25;;;;;;;;;;;;;;;6.53;100.00;96370.59;4918390;29;19925;-84
2022/12/25 05:01:50;;;;;;;;;;;;;;;6.55;100.00;96360.03;4913592;29;20403;-83
2022/12/25 05:04:20;;;;;;;;;;;;;;;6.55;100.00;96362.63;4908912;29;19918;-83
2022/12/25 05:06:45;;;;;;;;;;;;;;;6.60;100.00;96365.66;4899072;29;19974;-83
2022/12/25 05:09:11;;;;;;;;;;;;;;;6.63;100.00;96365.41;4900285;29;19974;-82
2022/12/25 05:11:36;;;;;;;;;;;;;;;6.59;100.00;96359.63;4913388;29;20434;-84
2022/12/25 05:14:02;;;;;;;;;;;;;;;6.59;100.00;96364.03;4904859;29;19915;-83
2022/12/25 05:16:27;;;;;;;;;;;;;;;6.60;100.00;96370.88;4925051;29;19918;-83
2022/12/25 05:18:54;;;;;;;;;;;;;;;6.63;100.00;96357.56;4915711;29;19923;-83
2022/12/25 05:21:36;;;;;;;;;;;;;;;6.72;100.00;96363.81;4909146;29;20381;-83
2022/12/25 05:24:01;;;;;;;;;;;;;;;6.76;100.00;96352.13;4915188;29;19919;-83
2022/12/25 05:26:29;;;;;;;;;;;;;;;6.79;100.00;96362.31;4913690;29;19918;-83
2022/12/25 05:28:55;;;;;;;;;;;;;;;6.81;100.00;96368.25;4907865;29;20005;-83
2022/12/25 05:31:20;;;;;;;;;;;;;;;6.82;100.00;96359.44;4925176;29;20005;-83
2022/12/25 05:33:50;;;;;;;;;;;;;;;6.84;100.00;96353.13;4907357;29;19921;-83
2022/12/25 05:36:15;;;;;;;;;;;;;;;6.85;100.00;96360.00;4906531;29;19914;-84
2022/12/25 05:38:41;;;;;;;;;;;;;;;6.84;100.00;96360.97;4901040;29;20337;-83
2022/12/25 05:41:06;;;;;;;;;;;;;;;6.83;100.00;96358.47;4901426;29;20009;-83
2022/12/25 05:43:32;;;;;;;;;;;;;;;6.82;100.00;96360.25;4894737;29;19954;-83
2022/12/25 05:46:04;;;;;;;;;;;;;;;6.75;100.00;96348.69;4916847;29;19961;-83
2022/12/25 05:48:29;;;;;;;;;;;;;;;6.73;100.00;96353.19;4913718;29;19936;-83
2022/12/25 05:50:55;;;;;;;;;;;;;;;6.70;100.00;96350.03;4905382;29;19915;-83
2022/12/25 05:53:20;;;;;;;;;;;;;;;6.65;100.00;96342.59;4929650;29;20280;-83
2022/12/25 05:55:46;;;;;;;;;;;;;;;6.68;100.00;96347.56;4899365;29;19915;-84
2022/12/25 05:58:12;;;;;;;;;;;;;;;6.67;100.00;96353.72;4912473;29;20409;-83
2022/12/25 06:00:38;;;;;;;;;;;;;;;6.61;100.00;96349.06;4912921;29;19969;-83
2022/12/25 06:03:04;;;;;;;;;;;;;;;6.55;100.00;96341.72;4908321;29;19915;-83
2022/12/25 06:05:30;;;;;;;;;;;;;;;6.47;100.00;96349.38;4913501;29;19915;-84
2022/12/25 06:07:56;;;;;;;;;;;;;;;6.46;100.00;96345.13;4921843;29;19946;-83
2022/12/25 06:10:21;;;;;;;;;;;;;;;6.44;100.00;96344.41;4932316;29;20590;-83
2022/12/25 06:12:47;;;;;;;;;;;;;;;6.43;100.00;96346.22;4892129;29;19929;-83
2022/12/25 06:15:13;;;;;;;;;;;;;;;6.46;100.00;96334.69;4928002;29;20057;-83
2022/12/25 06:17:38;;;;;;;;;;;;;;;6.46;100.00;96340.72;4900286;29;19929;-83
2022/12/25 06:20:05;;;;;;;;;;;;;;;6.48;100.00;96345.84;4922395;29;20281;-83
2022/12/25 06:22:31;;;;;;;;;;;;;;;6.48;100.00;96336.22;4924387;29;20367;-83
2022/12/25 06:24:57;;;;;;;;;;;;;;;6.46;100.00;96340.72;4927556;29;19919;-83
2022/12/25 06:27:23;;;;;;;;;;;;;;;6.47;100.00;96338.94;4893604;29;19922;-83
2022/12/25 06:29:48;;;;;;;;;;;;;;;6.49;100.00;96340.47;4917669;29;20005;-84
2022/12/25 06:32:14;;;;;;;;;;;;;;;6.41;100.00;96335.06;4917121;29;19949;-83
2022/12/25 06:34:39;;;;;;;;;;;;;;;6.34;100.00;96334.78;4898436;29;19915;-83
2022/12/25 06:37:18;;;;;;;;;;;;;;;6.29;100.00;96333.50;4909569;29;19958;-83
2022/12/25 06:39:45;;;;;;;;;;;;;;;6.37;100.00;96331.06;4910876;29;19921;-84
2022/12/25 06:42:10;;;;;;;;;;;;;;;6.29;100.00;96330.88;4918800;29;19925;-83
2022/12/25 06:44:43;;;;;;;;;;;;;;;6.28;100.00;96335.28;4891826;29;20293;-83
2022/12/25 06:47:09;;;;;;;;;;;;;;;6.28;100.00;96339.69;4896568;29;19941;-83
2022/12/25 06:49:35;;;;;;;;;;;;;;;6.24;100.00;96331.28;4904519;29;20018;-83
2022/12/25 06:52:00;;;;;;;;;;;;;;;6.30;100.00;96327.31;4923845;29;19973;-83
2022/12/25 06:54:26;;;;;;;;;;;;;;;6.31;100.00;96337.66;4915015;29;20013;-83
2022/12/25 06:56:54;;;;;;;;;;;;;;;6.29;100.00;96334.31;4919034;29;19990;-84
2022/12/25 06:59:20;;;;;;;;;;;;;;;6.34;100.00;96334.78;4903898;29;19918;-83
2022/12/25 07:01:48;;;;;;;;;;;;;;;6.33;100.00;96335.72;4893967;29;19958;-83
2022/12/25 07:04:20;;;;;;;;;;;;;;;6.34;100.00;96349.63;4916201;29;19914;-83
2022/12/25 07:06:45;;;;;;;;;;;;;;;6.36;100.00;96358.97;4919188;29;19993;-84
2022/12/25 07:09:14;;;;;;;;;;;;;;;6.40;100.00;96348.25;4913974;29;19918;-83
2022/12/25 07:11:39;;;;;;;;;;;;;;;6.36;100.00;96348.50;4895191;29;20050;-83
2022/12/25 07:14:05;;;;;;;;;;;;;;;6.36;100.00;96340.69;4899173;29;20017;-83
2022/12/25 07:16:30;;;;;;;;;;;;;;;6.43;100.00;96353.22;4911686;29;20399;-84
2022/12/25 07:18:59;;;;;;;;;;;;;;;6.43;100.00;96345.38;4905579;29;19917;-83
2022/12/25 07:21:24;;;;;;;;;;;;;;;6.41;100.00;96352.53;4917480;29;19969;-83
2022/12/25 07:23:50;;;;;;;;;;;;;;;6.43;100.00;96353.22;4903525;29;19915;-84
2022/12/25 07:26:18;;;;;;;;;;;;;;;6.40;100.00;96343.03;4905041;29;19914;-83
2022/12/25 07:28:51;;;;;;;;;;;;;;;6.41;100.00;96344.72;4903851;29;19930;-83
2022/12/25 07:31:17;;;;;;;;;;;;;;;6.39;100.00;96360.50;4926300;29;19962;-82
2022/12/25 07:33:43;;;;;;;;;;;;;;;6.42;100.00;96356.81;4920466;29;19918;-83
2022/12/25 07:36:09;;;;;;;;;;;;;;;6.44;100.00;96360.94;4918024;29;19919;-82
2022/12/25 07:38:35;;;;;;;;;;;;;;;6.47;100.00;96358.06;4902867;29;19973;-83
2022/12/25 07:41:05;;;;;;;;;;;;;;;6.49;100.00;96357.94;4923406;29;19915;-83
2022/12/25 07:43:31;;;;;;;;;;;;;;;6.50;100.00;96372.63;4905713;29;19919;-83
2022/12/25 07:46:03;;;;;;;;;;;;;;;6.51;100.00;96366.47;4904556;29;20333;-83
2022/12/25 07:48:29;;;;;;;;;;;;;;;6.51;100.00;96367.28;4899668;29;19985;-83
2022/12/25 07:50:59;;;;;;;;;;;;;;;6.52;100.00;96368.94;4895704;29;20333;-83
2022/12/25 07:53:25;;;;;;;;;;;;;;;6.54;100.00;96368.81;4918535;29;19929;-83
2022/12/25 07:56:01;;;;;;;;;;;;;;;6.57;100.00;96363.31;4904761;29;19922;-83
2022/12/25 07:58:27;;;;;;;;;;;;;;;6.55;100.00;96363.47;4900837;29;19915;-83
2022/12/25 08:00:53;;;;;;;;;;;;;;;6.60;100.00;96357.81;4902224;29;20361;-83
2022/12/25 08:03:19;;;;;;;;;;;;;;;6.59;100.00;96358.78;4894073;29;19925;-83
2022/12/25 08:05:45;;;;;;;;;;;;;;;6.56;100.00;96349.44;4918758;29;19993;-83
2022/12/25 08:08:11;;;;;;;;;;;;;;;6.57;100.00;96350.25;4921438;29;20009;-83
2022/12/25 08:10:36;;;;;;;;;;;;;;;6.55;100.00;96352.19;4916703;29;19942;-83
2022/12/25 08:13:02;;;;;;;;;;;;;;;6.56;100.00;96344.19;4932069;29;19929;-82
2022/12/25 08:15:31;;;;;;;;;;;;;;;6.57;100.00;96345.88;4933840;29;19918;-83
2022/12/25 08:17:57;;;;;;;;;;;;;;;6.59;100.00;96349.16;4903271;29;19915;-82
2022/12/25 08:20:22;;;;;;;;;;;;;;;6.63;100.00;96341.06;4914624;29;19942;-83
2022/12/25 08:22:48;;;;;;;;;;;;;;;6.61;100.00;96346.44;4908868;29;19922;-83
2022/12/25 08:25:14;;;;;;;;;;;;;;;6.65;100.00;96339.16;4907811;29;19914;-82
2022/12/25 08:27:40;;;;;;;;;;;;;;;6.60;100.00;96336.91;4906377;29;19978;-82
2022/12/25 08:30:06;;;;;;;;;;;;;;;6.63;100.00;96347.13;4934929;29;20005;-82
2022/12/25 08:32:32;;;;;;;;;;;;;;;6.66;100.00;96340.81;4916293;29;19914;-82
2022/12/25 08:34:57;;;;;;;;;;;;;;;6.61;100.00;96335.97;4913116;29;19977;-82
2022/12/25 08:37:23;;;;;;;;;;;;;;;6.65;100.00;96342.59;4915760;29;21091;-82
2022/12/25 08:39:48;;;;;;;;;;;;;;;6.69;100.00;96343.16;4892645;29;20312;-82
2022/12/25 08:42:14;;;;;;;;;;;;;;;6.74;100.00;96344.41;4915560;29;19997;-82
2022/12/25 08:44:39;;;;;;;;;;;;;;;6.77;100.00;96344.16;4927404;29;19937;-82
2022/12/25 08:47:05;;;;;;;;;;;;;;;6.82;100.00;96344.56;4924012;29;19918;-82
2022/12/25 08:49:30;;;;;;;;;;;;;;;6.88;100.00;96343.22;4929541;29;20380;-82
2022/12/25 08:52:02;;;;;;;;;;;;;;;6.89;100.00;96331.78;4912826;29;20451;-82
2022/12/25 08:54:30;;;;;;;;;;;;;;;6.98;100.00;96353.72;4904154;29;19919;-82
2022/12/25 08:56:56;;;;;;;;;;;;;;;7.00;100.00;96336.06;4916802;29;19914;-83
2022/12/25 08:59:25;;;;;;;;;;;;;;;7.01;100.00;96351.66;4915123;29;19915;-83
2022/12/25 09:01:50;;;;;;;;;;;;;;;7.00;100.00;96352.59;4909197;29;20005;-83
2022/12/25 09:04:16;;;;;;;;;;;;;;;7.03;100.00;96354.13;4924083;29;20038;-83
2022/12/25 09:06:41;;;;;;;;;;;;;;;7.08;100.00;96358.00;4922413;29;19965;-83
2022/12/25 09:09:07;;;;;;;;;;;;;;;7.14;100.00;96356.59;4914300;29;20013;-83
2022/12/25 09:11:32;;;;;;;;;;;;;;;7.20;100.00;96353.47;4909356;29;19953;-82
2022/12/25 09:13:59;;;;;;;;;;;;;;;7.27;100.00;96338.88;4916092;29;19910;-83
2022/12/25 09:16:24;;;;;;;;;;;;;;;7.39;100.00;96336.16;4914258;29;19918;-83
2022/12/25 09:18:50;;;;;;;;;;;;;;;7.47;100.00;96331.84;4897803;29;19935;-83
2022/12/25 09:21:19;;;;;;;;;;;;;;;7.56;100.00;96319.75;4914457;29;19918;-84
2022/12/25 09:23:45;;;;;;;;;;;;;;;7.59;100.00;96311.63;4907270;29;20370;-83
2022/12/25 09:26:12;;;;;;;;;;;;;;;7.69;100.00;96312.44;4911958;29;19911;-83
2022/12/25 09:28:38;;;;;;;;;;;;;;;7.95;100.00;96310.06;4916973;29;19918;-84
2022/12/25 09:31:03;;;;;;;;;;;;;;;7.99;100.00;96302.75;4905615;29;20057;-83
2022/12/25 09:33:29;;;;;;;;;;;;;;;8.23;100.00;96281.31;4902197;29;20013;-83
2022/12/25 09:35:56;;;;;;;;;;;;;;;8.47;100.00;96275.59;4897377;29;19915;-83
2022/12/25 09:38:23;;;;;;;;;;;;;;;8.54;100.00;96270.59;4893801;29;19915;-83
2022/12/25 09:41:05;;;;;;;;;;;;;;;8.56;100.00;96253.75;4899462;29;19915;-83
2022/12/25 09:43:33;;;;;;;;;;;;;;;9.08;100.00;96230.34;4918930;29;20007;-86
2022/12/25 09:46:01;;;;;;;;;;;;;;;9.45;100.00;96216.22;4915873;29;19921;-83
2022/12/25 09:48:28;;;;;;;;;;;;;;;9.62;100.00;96204.03;4894512;29;19918;-84
2022/12/25 09:50:58;;;;;;;;;;;;;;;9.72;100.00;96198.69;4907238;29;20405;-83
2022/12/25 09:53:25;;;;;;;;;;;;;;;10.01;100.00;96196.56;4913834;29;19987;-85
2022/12/25 09:58:48;;;;;;;;;;;;;;;10.91;100.00;96186.38;4917458;29;19915;-84
2022/12/25 10:01:17;;;;;;;;;;;;;;;10.48;100.00;96196.13;4903033;29;20437;-83
2022/12/25 10:03:51;;;;;;;;;;;;;;;11.07;100.00;96189.03;4899228;29;19914;-84
2022/12/25 10:06:20;;;;;;;;;;;;;;;11.57;100.00;96192.50;4909260;29;20040;-84
2022/12/25 10:12:15;;;;;;;;;;;;;;;12.30;100.00;96186.22;4919908;29;19919;-83
2022/12/25 10:14:49;;;;;;;;;;;;;;;13.06;100.00;96178.56;4909590;29;19966;-83
2022/12/25 10:17:15;;;;;;;;;;;;;;;13.27;100.00;96177.94;4896766;29;19914;-84
2022/12/25 10:22:58;;;;;;;;;;;;;;;13.25;100.00;96178.13;4913785;29;20424;-84
2022/12/25 10:25:24;;;;;;;;;;;;;;;13.76;100.00;96175.69;4925948;29;19914;-84
2022/12/25 10:28:00;;;;;;;;;;;;;;;13.80;100.00;96174.31;4906343;29;19919;-83
2022/12/25 10:30:26;;;;;;;;;;;;;;;13.75;100.00;96183.78;4921864;29;19923;-84
2022/12/25 10:32:53;;;;;;;;;;;;;;;13.68;100.00;96183.69;4923819;29;19914;-84
2022/12/25 10:35:28;;;;;;;;;;;;;;;13.81;100.00;96175.94;4929092;29;19925;-84
2022/12/25 10:37:56;;;;;;;;;;;;;;;13.60;100.00;96167.91;4909176;29;19926;-84
2022/12/25 10:40:22;;;;;;;;;;;;;;;13.67;100.00;96172.28;4922218;29;20397;-83
2022/12/25 10:42:52;;;;;;;;;;;;;;;13.83;100.00;96162.56;4908898;29;19926;-84
2022/12/25 10:45:18;;;;;;;;;;;;;;;13.60;100.00;96160.81;4912834;29;19921;-83
2022/12/25 10:47:43;;;;;;;;;;;;;;;12.89;100.00;96156.75;4914767;29;20605;-83
2022/12/25 10:50:11;;;;;;;;;;;;;;;12.72;100.00;96156.84;4908508;29;19931;-83
2022/12/25 10:52:49;;;;;;;;;;;;;;;12.83;100.00;96155.59;4933188;29;19918;-83
2022/12/25 10:55:20;;;;;;;;;;;;;;;12.43;100.00;96154.84;4928932;29;20376;-83
2022/12/25 10:57:48;;;;;;;;;;;;;;;12.37;100.00;96147.63;4918664;29;19929;-83
2022/12/25 11:00:21;;;;;;;;;;;;;;;12.50;100.00;96149.69;4931365;29;19941;-82
2022/12/25 11:02:46;;;;;;;;;;;;;;;12.47;100.00;96148.25;4928874;29;19954;-85
2022/12/25 11:05:14;;;;;;;;;;;;;;;12.62;100.00;96153.59;4910410;29;20389;-83
2022/12/25 11:07:52;;;;;;;;;;;;;;;12.37;100.00;96149.44;4929494;29;19934;-84
2022/12/25 11:10:30;;;;;;;;;;;;;;;12.35;100.00;96139.06;4910713;29;19933;-84
2022/12/25 11:12:56;;;;;;;;;;;;;;;12.49;100.00;96146.25;4918334;29;20344;-84
2022/12/25 11:15:30;;;;;;;;;;;;;;;12.55;100.00;96138.66;4931899;29;19925;-84
2022/12/25 11:17:56;;;;;;;;;;;;;;;12.35;100.00;96133.81;4915993;29;20370;-84
2022/12/25 11:20:22;;;;;;;;;;;;;;;12.44;100.00;96126.66;4918133;29;19915;-84
2022/12/25 11:22:51;;;;;;;;;;;;;;;12.61;100.00;96132.66;4907389;29;19923;-83
2022/12/25 11:25:24;;;;;;;;;;;;;;;12.94;100.00;96123.56;4902678;29;19915;-83
2022/12/25 11:27:57;;;;;;;;;;;;;;;13.01;100.00;96128.09;4910045;29;20017;-84
2022/12/25 11:30:22;;;;;;;;;;;;;;;13.15;100.00;96124.72;4915706;29;19961;-83
2022/12/25 11:32:54;;;;;;;;;;;;;;;12.76;100.00;96117.72;4903763;29;20013;-84
2022/12/25 11:35:24;;;;;;;;;;;;;;;12.77;100.00;96108.81;4909580;29;20727;-84
2022/12/25 11:37:51;;;;;;;;;;;;;;;12.46;100.00;96104.38;4928577;29;20066;-84
2022/12/25 11:40:23;;;;;;;;;;;;;;;12.09;100.00;96105.09;4906574;29;19919;-84
2022/12/25 11:42:50;;;;;;;;;;;;;;;11.68;100.00;96112.28;4917563;29;19918;-83
2022/12/25 11:45:17;;;;;;;;;;;;;;;11.92;100.00;96117.50;4928710;29;20301;-83
2022/12/25 11:47:46;;;;;;;;;;;;;;;11.82;100.00;96110.75;4921765;29;19999;-84
2022/12/25 11:50:27;;;;;;;;;;;;;;;11.95;100.00;96113.72;4914679;29;20300;-84
2022/12/25 11:52:53;;;;;;;;;;;;;;;11.85;100.00;96110.47;4915468;29;19915;-84
2022/12/25 11:55:24;;;;;;;;;;;;;;;11.98;100.00;96106.28;4938630;29;20005;-83
2022/12/25 11:58:00;;;;;;;;;;;;;;;12.29;100.00;96102.03;4903558;29;20006;-84
2022/12/25 12:00:27;;;;;;;;;;;;;;;12.28;100.00;96095.94;4910864;29;20017;-83
2022/12/25 12:03:08;;;;;;;;;;;;;;;12.25;100.00;96093.66;4929473;29;19918;-84
2022/12/25 12:05:50;;;;;;;;;;;;;;;12.24;100.00;96097.28;4920242;29;20421;-83
2022/12/25 12:08:16;;;;;;;;;;;;;;;11.98;100.00;96101.00;4912156;29;20625;-83
2022/12/25 12:10:49;;;;;;;;;;;;;;;12.34;100.00;96102.31;4919747;29;19918;-84
2022/12/25 12:13:30;;;;;;;;;;;;;;;12.36;100.00;96095.88;4915941;29;19915;-84
2022/12/25 12:15:57;;;;;;;;;;;;;;;12.53;100.00;96090.50;4937248;29;19921;-83
2022/12/25 12:18:29;;;;;;;;;;;;;;;12.55;100.00;96091.97;4915966;29;19922;-84
2022/12/25 12:21:03;;;;;;;;;;;;;;;12.34;100.00;96083.84;4927534;29;19914;-83
2022/12/25 12:23:47;;;;;;;;;;;;;;;12.13;100.00;96092.38;4908046;29;19966;-83
2022/12/25 12:26:17;;;;;;;;;;;;;;;12.52;100.00;96092.34;4916604;29;19914;-83
2022/12/25 12:28:44;;;;;;;;;;;;;;;12.42;100.00;96084.66;4929348;29;19933;-84
2022/12/25 12:31:10;;;;;;;;;;;;;;;12.20;100.00;96080.16;4914724;29;19919;-84
2022/12/25 12:33:48;;;;;;;;;;;;;;;12.10;100.00;96076.91;4931269;29;19918;-84
2022/12/25 12:36:14;;;;;;;;;;;;;;;12.27;100.00;96068.75;4913562;29;19927;-83
2022/12/25 12:38:42;;;;;;;;;;;;;;;12.33;100.00;96058.50;4930235;29;19914;-83
2022/12/25 12:41:09;;;;;;;;;;;;;;;12.12;100.00;96053.84;4925365;29;19922;-83
2022/12/25 12:43:39;;;;;;;;;;;;;;;12.08;100.00;96036.75;4916962;29;19914;-83
2022/12/25 12:46:18;;;;;;;;;;;;;;;12.39;100.00;96029.59;4937923;29;19977;-84
2022/12/25 12:48:45;;;;;;;;;;;;;;;12.38;100.00;96027.97;4918535;29;19918;-83
2022/12/25 12:51:12;;;;;;;;;;;;;;;12.31;100.00;96024.41;4925147;29;20328;-84
2022/12/25 12:53:39;;;;;;;;;;;;;;;12.44;100.00;96007.97;4911064;29;19939;-82
2022/12/25 12:56:09;;;;;;;;;;;;;;;12.60;100.00;96007.03;4930228;29;20550;-83
2022/12/25 12:58:36;;;;;;;;;;;;;;;12.70;100.00;95999.69;4911209;29;20782;-83
2022/12/25 13:01:08;;;;;;;;;;;;;;;13.02;100.00;96010.97;4914472;29;20014;-83
2022/12/25 13:03:49;;;;;;;;;;;;;;;13.24;100.00;96019.81;4924496;29;19950;-83
2022/12/25 13:06:33;;;;;;;;;;;;;;;12.96;100.00;96026.50;4925189;29;19969;-83
2022/12/25 13:09:05;;;;;;;;;;;;;;;12.84;100.00;96038.47;4916442;29;19925;-84
2022/12/25 13:11:34;;;;;;;;;;;;;;;12.94;100.00;96048.78;4920100;29;19946;-83
2022/12/25 13:14:01;;;;;;;;;;;;;;;13.12;100.00;96051.13;4932865;29;19918;-83
2022/12/25 13:16:37;;;;;;;;;;;;;;;13.19;100.00;96047.59;4913135;28;19946;-83
2022/12/25 13:19:07;;;;;;;;;;;;;;;13.41;100.00;96040.63;4937452;29;19921;-83
2022/12/25 13:21:33;;;;;;;;;;;;;;;13.36;100.00;96037.72;4903153;29;19959;-83
2022/12/25 13:24:16;;;;;;;;;;;;;;;13.53;100.00;96038.34;4899355;29;20071;-82
2022/12/25 13:26:42;;;;;;;;;;;;;;;13.59;100.00;96037.63;4914786;29;19978;-83
2022/12/25 13:29:20;;;;;;;;;;;;;;;13.62;100.00;96036.44;4902226;29;19977;-83
2022/12/25 13:31:46;;;;;;;;;;;;;;;13.41;100.00;96035.34;4915938;29;19914;-83
2022/12/25 13:34:24;;;;;;;;;;;;;;;13.35;100.00;96037.91;4925507;29;20038;-83
2022/12/25 13:37:00;;;;;;;;;;;;;;;13.33;100.00;96043.34;4913754;29;20385;-84
2022/12/25 13:39:26;;;;;;;;;;;;;;;13.18;100.00;96045.13;4903284;29;20424;-83
2022/12/25 13:42:04;;;;;;;;;;;;;;;13.11;100.00;96049.47;4903820;29;19914;-83
2022/12/25 13:44:59;;;;;;;;;;;;;;;13.28;100.00;96023.75;4923399;29;20343;-83
2022/12/25 13:47:35;;;;;;;;;;;;;;;13.06;100.00;96025.44;4898008;29;19918;-83
2022/12/25 13:50:12;;;;;;;;;;;;;;;12.97;100.00;96033.41;4910011;29;20113;-84
2022/12/25 13:52:38;;;;;;;;;;;;;;;13.05;100.00;96034.38;4913754;29;19914;-82
2022/12/25 13:55:10;;;;;;;;;;;;;;;13.22;100.00;96033.22;4907774;29;19915;-84
2022/12/25 13:57:40;;;;;;;;;;;;;;;13.25;100.00;96029.44;4925558;29;19960;-84
2022/12/25 14:00:15;;;;;;;;;;;;;;;13.30;100.00;96029.69;4933820;29;20601;-84
2022/12/25 14:02:40;;;;;;;;;;;;;;;13.44;100.00;96039.44;4916837;29;19918;-84
2022/12/25 14:05:24;;;;;;;;;;;;;;;13.52;100.00;96035.91;4899424;29;20829;-84
2022/12/25 14:07:54;;;;;;;;;;;;;;;13.34;100.00;96047.63;4912006;29;20340;-84
2022/12/25 14:10:31;;;;;;;;;;;;;;;13.42;100.00;96049.38;4914341;29;19922;-83
2022/12/25 14:12:59;;;;;;;;;;;;;;;13.30;100.00;96048.19;4905874;29;19930;-84
2022/12/25 14:15:26;;;;;;;;;;;;;;;12.95;100.00;96051.28;4915997;29;19914;-84
2022/12/25 14:17:52;;;;;;;;;;;;;;;12.58;100.00;96041.53;4913813;29;19914;-84
2022/12/25 14:20:27;;;;;;;;;;;;;;;12.30;100.00;96035.09;4912837;29;20301;-83
2022/12/25 14:22:54;;;;;;;;;;;;;;;11.91;100.00;96028.91;4901339;29;19922;-83
2022/12/25 14:25:21;;;;;;;;;;;;;;;11.86;100.00;96028.59;4919172;29;19919;-85
2022/12/25 14:27:49;;;;;;;;;;;;;;;11.78;100.00;96036.50;4900991;29;19949;-84
2022/12/25 14:30:15;;;;;;;;;;;;;;;11.60;100.00;96022.75;4915101;29;19922;-85
2022/12/25 14:32:43;;;;;;;;;;;;;;;11.54;100.00;96032.16;4918688;29;19914;-82
2022/12/25 14:35:10;;;;;;;;;;;;;;;11.40;100.00;96028.44;4906889;29;19945;-83
2022/12/25 14:37:37;;;;;;;;;;;;;;;11.47;100.00;96033.84;4904694;29;19919;-83
2022/12/25 14:40:05;;;;;;;;;;;;;;;11.30;100.00;96028.63;4906283;29;19915;-83
2022/12/25 14:42:36;;;;;;;;;;;;;;;11.24;100.00;96034.56;4930726;29;19915;-83
2022/12/25 14:45:04;;;;;;;;;;;;;;;11.14;100.00;96043.63;4913767;29;19915;-82